sensor_id;sensor_type;location;lat;lon;timestamp;temperature;humidity
51825;DHT22;37879;52.986;6.282;2023-04-29T00:01:10;9.30;99.90
51825;DHT22;37879;52.986;6.282;2023-04-29T00:03:36;9.10;99.90
51825;DHT22;37879;52.986;6.282;2023-04-29T00:06:02;9.00;99.90
51825;DHT22;37879;52.986;6.282;2023-04-29T00:08:27;9.00;99.90
51825;DHT22;37879;52.986;6.282;2023-04-29T00:10:53;9.00;99.90
51825;DHT22;37879;52.986;6.282;2023-04-29T00:13:19;9.10;99.90
51825;DHT22;37879;52.986;6.282;2023-04-29T00:15:45;9.00;99.90
51825;DHT22;37879;52.986;6.282;2023-04-29T00:18:11;9.00;99.90
51825;DHT22;37879;52.986;6.282;2023-04-29T00:20:38;9.00;99.90
51825;DHT22;37879;52.986;6.282;2023-04-29T00:23:04;9.00;99.90
51825;DHT22;37879;52.986;6.282;2023-04-29T00:25:30;9.00;99.90
51825;DHT22;37879;52.986;6.282;2023-04-29T00:27:56;9.00;99.90
51825;DHT22;37879;52.986;6.282;2023-04-29T00:30:26;9.00;99.90
51825;DHT22;37879;52.986;6.282;2023-04-29T00:32:53;9.00;99.90
51825;DHT22;37879;52.986;6.282;2023-04-29T00:35:20;8.90;99.90
51825;DHT22;37879;52.986;6.282;2023-04-29T00:37:45;8.90;99.90
51825;DHT22;37879;52.986;6.282;2023-04-29T00:40:11;8.90;99.90
51825;DHT22;37879;52.986;6.282;2023-04-29T00:42:39;8.90;99.90
51825;DHT22;37879;52.986;6.282;2023-04-29T00:45:06;8.90;99.90
51825;DHT22;37879;52.986;6.282;2023-04-29T00:47:31;8.90;99.90
51825;DHT22;37879;52.986;6.282;2023-04-29T00:49:57;8.80;99.90
51825;DHT22;37879;52.986;6.282;2023-04-29T00:52:23;8.80;99.90
51825;DHT22;37879;52.986;6.282;2023-04-29T00:54:50;8.80;99.90
51825;DHT22;37879;52.986;6.282;2023-04-29T00:57:16;8.80;99.90
51825;DHT22;37879;52.986;6.282;2023-04-29T00:59:43;8.80;99.90
51825;DHT22;37879;52.986;6.282;2023-04-29T01:02:10;8.80;99.90
51825;DHT22;37879;52.986;6.282;2023-04-29T01:04:35;8.80;99.90
51825;DHT22;37879;52.986;6.282;2023-04-29T01:12:20;8.80;99.90
51825;DHT22;37879;52.986;6.282;2023-04-29T01:17:40;8.80;99.90
51825;DHT22;37879;52.986;6.282;2023-04-29T01:20:08;8.80;99.90
51825;DHT22;37879;52.986;6.282;2023-04-29T01:22:35;8.80;99.90
51825;DHT22;37879;52.986;6.282;2023-04-29T01:25:01;8.80;99.90
51825;DHT22;37879;52.986;6.282;2023-04-29T01:35:29;8.80;99.90
51825;DHT22;37879;52.986;6.282;2023-04-29T01:41:30;8.80;99.90
51825;DHT22;37879;52.986;6.282;2023-04-29T01:44:00;8.80;99.90
51825;DHT22;37879;52.986;6.282;2023-04-29T01:46:27;9.10;99.90
51825;DHT22;37879;52.986;6.282;2023-04-29T01:48:53;8.80;99.90
51825;DHT22;37879;52.986;6.282;2023-04-29T01:51:19;8.80;99.90
51825;DHT22;37879;52.986;6.282;2023-04-29T01:53:45;8.80;99.90
51825;DHT22;37879;52.986;6.282;2023-04-29T01:56:11;8.80;99.90
51825;DHT22;37879;52.986;6.282;2023-04-29T01:58:36;8.80;99.90
51825;DHT22;37879;52.986;6.282;2023-04-29T02:01:02;8.80;99.90
51825;DHT22;37879;52.986;6.282;2023-04-29T02:03:27;9.10;99.90
51825;DHT22;37879;52.986;6.282;2023-04-29T02:05:53;8.80;99.90
51825;DHT22;37879;52.986;6.282;2023-04-29T02:08:19;9.00;99.90
51825;DHT22;37879;52.986;6.282;2023-04-29T02:10:55;9.80;99.90
51825;DHT22;37879;52.986;6.282;2023-04-29T02:13:21;8.80;99.90
51825;DHT22;37879;52.986;6.282;2023-04-29T02:15:47;8.80;99.90
51825;DHT22;37879;52.986;6.282;2023-04-29T02:18:12;8.80;99.90
51825;DHT22;37879;52.986;6.282;2023-04-29T02:20:38;8.80;99.90
51825;DHT22;37879;52.986;6.282;2023-04-29T02:23:05;8.80;99.90
51825;DHT22;37879;52.986;6.282;2023-04-29T02:25:30;8.80;99.90
51825;DHT22;37879;52.986;6.282;2023-04-29T02:27:56;8.80;99.90
51825;DHT22;37879;52.986;6.282;2023-04-29T02:30:22;8.80;99.90
51825;DHT22;37879;52.986;6.282;2023-04-29T02:32:47;9.20;99.90
51825;DHT22;37879;52.986;6.282;2023-04-29T02:35:13;9.40;99.90
51825;DHT22;37879;52.986;6.282;2023-04-29T02:37:39;8.80;99.90
51825;DHT22;37879;52.986;6.282;2023-04-29T02:40:05;8.80;99.90
51825;DHT22;37879;52.986;6.282;2023-04-29T02:42:31;8.70;99.90
51825;DHT22;37879;52.986;6.282;2023-04-29T02:44:57;8.60;99.90
51825;DHT22;37879;52.986;6.282;2023-04-29T02:47:22;8.60;99.90
51825;DHT22;37879;52.986;6.282;2023-04-29T02:49:48;8.60;99.90
51825;DHT22;37879;52.986;6.282;2023-04-29T02:52:14;8.50;99.90
51825;DHT22;37879;52.986;6.282;2023-04-29T02:54:41;10.10;99.90
51825;DHT22;37879;52.986;6.282;2023-04-29T02:57:07;8.50;99.90
51825;DHT22;37879;52.986;6.282;2023-04-29T02:59:33;8.50;99.90
51825;DHT22;37879;52.986;6.282;2023-04-29T03:01:59;8.50;99.90
51825;DHT22;37879;52.986;6.282;2023-04-29T03:04:26;8.50;99.90
51825;DHT22;37879;52.986;6.282;2023-04-29T03:06:54;8.40;99.90
51825;DHT22;37879;52.986;6.282;2023-04-29T03:09:21;8.50;99.90
51825;DHT22;37879;52.986;6.282;2023-04-29T03:11:47;8.50;99.90
51825;DHT22;37879;52.986;6.282;2023-04-29T03:14:12;9.00;99.90
51825;DHT22;37879;52.986;6.282;2023-04-29T03:16:38;8.50;99.90
51825;DHT22;37879;52.986;6.282;2023-04-29T03:19:04;8.40;99.90
51825;DHT22;37879;52.986;6.282;2023-04-29T03:21:29;8.60;99.90
51825;DHT22;37879;52.986;6.282;2023-04-29T03:23:56;8.40;99.90
51825;DHT22;37879;52.986;6.282;2023-04-29T03:26:21;8.50;99.90
51825;DHT22;37879;52.986;6.282;2023-04-29T03:28:48;8.40;99.90
51825;DHT22;37879;52.986;6.282;2023-04-29T03:31:14;8.40;99.90
51825;DHT22;37879;52.986;6.282;2023-04-29T03:33:41;8.40;99.90
51825;DHT22;37879;52.986;6.282;2023-04-29T03:36:06;8.40;99.90
51825;DHT22;37879;52.986;6.282;2023-04-29T03:38:33;8.50;99.90
51825;DHT22;37879;52.986;6.282;2023-04-29T03:40:59;8.40;99.90
51825;DHT22;37879;52.986;6.282;2023-04-29T03:43:25;8.50;99.90
51825;DHT22;37879;52.986;6.282;2023-04-29T03:45:51;9.10;99.90
51825;DHT22;37879;52.986;6.282;2023-04-29T03:48:17;8.50;99.90
51825;DHT22;37879;52.986;6.282;2023-04-29T03:50:43;8.50;99.90
51825;DHT22;37879;52.986;6.282;2023-04-29T03:53:08;8.40;99.90
51825;DHT22;37879;52.986;6.282;2023-04-29T03:55:34;8.40;99.90
51825;DHT22;37879;52.986;6.282;2023-04-29T03:58:00;8.50;99.90
51825;DHT22;37879;52.986;6.282;2023-04-29T04:00:26;8.40;99.90
51825;DHT22;37879;52.986;6.282;2023-04-29T04:02:55;8.40;99.90
51825;DHT22;37879;52.986;6.282;2023-04-29T04:05:21;8.50;99.90
51825;DHT22;37879;52.986;6.282;2023-04-29T04:07:52;8.40;99.90
51825;DHT22;37879;52.986;6.282;2023-04-29T04:10:18;8.40;99.90
51825;DHT22;37879;52.986;6.282;2023-04-29T04:12:44;8.40;99.90
51825;DHT22;37879;52.986;6.282;2023-04-29T04:15:10;8.40;99.90
51825;DHT22;37879;52.986;6.282;2023-04-29T04:17:36;8.60;99.90
51825;DHT22;37879;52.986;6.282;2023-04-29T04:20:01;8.40;99.90
51825;DHT22;37879;52.986;6.282;2023-04-29T04:22:27;8.40;99.90
51825;DHT22;37879;52.986;6.282;2023-04-29T04:24:56;9.50;99.90
51825;DHT22;37879;52.986;6.282;2023-04-29T04:27:21;8.40;99.90
51825;DHT22;37879;52.986;6.282;2023-04-29T04:29:47;8.50;99.90
51825;DHT22;37879;52.986;6.282;2023-04-29T04:32:13;8.40;99.90
51825;DHT22;37879;52.986;6.282;2023-04-29T04:34:38;8.50;99.90
51825;DHT22;37879;52.986;6.282;2023-04-29T04:37:04;8.50;99.90
51825;DHT22;37879;52.986;6.282;2023-04-29T04:39:31;8.50;99.90
51825;DHT22;37879;52.986;6.282;2023-04-29T04:41:56;8.40;99.90
51825;DHT22;37879;52.986;6.282;2023-04-29T04:44:22;8.40;99.90
51825;DHT22;37879;52.986;6.282;2023-04-29T04:46:49;8.40;99.90
51825;DHT22;37879;52.986;6.282;2023-04-29T04:49:15;8.40;99.90
51825;DHT22;37879;52.986;6.282;2023-04-29T04:51:43;8.70;99.90
51825;DHT22;37879;52.986;6.282;2023-04-29T04:54:09;8.40;99.90
51825;DHT22;37879;52.986;6.282;2023-04-29T04:56:35;8.40;99.90
51825;DHT22;37879;52.986;6.282;2023-04-29T04:59:02;8.50;99.90
51825;DHT22;37879;52.986;6.282;2023-04-29T05:01:28;8.50;99.90
51825;DHT22;37879;52.986;6.282;2023-04-29T05:03:54;9.30;99.90
51825;DHT22;37879;52.986;6.282;2023-04-29T05:06:20;8.50;99.90
51825;DHT22;37879;52.986;6.282;2023-04-29T05:08:45;8.50;99.90
51825;DHT22;37879;52.986;6.282;2023-04-29T05:11:18;8.70;99.90
51825;DHT22;37879;52.986;6.282;2023-04-29T05:13:44;8.50;99.90
51825;DHT22;37879;52.986;6.282;2023-04-29T05:16:10;8.50;99.90
51825;DHT22;37879;52.986;6.282;2023-04-29T05:18:35;8.60;99.90
51825;DHT22;37879;52.986;6.282;2023-04-29T05:21:01;8.60;99.90
51825;DHT22;37879;52.986;6.282;2023-04-29T05:23:26;8.90;99.90
51825;DHT22;37879;52.986;6.282;2023-04-29T05:25:52;8.90;99.90
51825;DHT22;37879;52.986;6.282;2023-04-29T05:28:18;8.60;99.90
51825;DHT22;37879;52.986;6.282;2023-04-29T05:30:44;8.60;99.90
51825;DHT22;37879;52.986;6.282;2023-04-29T05:33:10;8.60;99.90
51825;DHT22;37879;52.986;6.282;2023-04-29T05:35:36;8.60;99.90
51825;DHT22;37879;52.986;6.282;2023-04-29T05:38:02;8.60;99.90
51825;DHT22;37879;52.986;6.282;2023-04-29T05:40:28;8.70;99.90
51825;DHT22;37879;52.986;6.282;2023-04-29T05:42:53;8.70;99.90
51825;DHT22;37879;52.986;6.282;2023-04-29T05:45:19;8.70;99.90
51825;DHT22;37879;52.986;6.282;2023-04-29T05:47:45;9.50;99.90
51825;DHT22;37879;52.986;6.282;2023-04-29T05:50:10;8.70;99.90
51825;DHT22;37879;52.986;6.282;2023-04-29T05:52:37;8.80;99.90
51825;DHT22;37879;52.986;6.282;2023-04-29T05:55:03;8.80;99.90
51825;DHT22;37879;52.986;6.282;2023-04-29T05:57:28;8.80;99.90
51825;DHT22;37879;52.986;6.282;2023-04-29T05:59:54;9.60;99.90
51825;DHT22;37879;52.986;6.282;2023-04-29T06:02:20;8.80;99.90
51825;DHT22;37879;52.986;6.282;2023-04-29T06:04:46;8.90;99.90
51825;DHT22;37879;52.986;6.282;2023-04-29T06:07:14;9.30;99.90
51825;DHT22;37879;52.986;6.282;2023-04-29T06:09:40;9.00;99.90
51825;DHT22;37879;52.986;6.282;2023-04-29T06:12:07;9.00;99.90
51825;DHT22;37879;52.986;6.282;2023-04-29T06:14:32;9.10;99.90
51825;DHT22;37879;52.986;6.282;2023-04-29T06:16:58;9.10;99.90
51825;DHT22;37879;52.986;6.282;2023-04-29T06:19:23;9.10;99.90
51825;DHT22;37879;52.986;6.282;2023-04-29T06:21:50;9.40;99.90
51825;DHT22;37879;52.986;6.282;2023-04-29T06:24:15;9.20;99.90
51825;DHT22;37879;52.986;6.282;2023-04-29T06:26:41;9.30;99.90
51825;DHT22;37879;52.986;6.282;2023-04-29T06:29:07;9.60;99.90
51825;DHT22;37879;52.986;6.282;2023-04-29T06:31:32;9.40;99.90
51825;DHT22;37879;52.986;6.282;2023-04-29T06:33:58;9.40;99.90
51825;DHT22;37879;52.986;6.282;2023-04-29T06:36:23;9.40;99.90
51825;DHT22;37879;52.986;6.282;2023-04-29T06:38:49;9.40;99.90
51825;DHT22;37879;52.986;6.282;2023-04-29T06:41:15;9.40;99.90
51825;DHT22;37879;52.986;6.282;2023-04-29T06:43:40;10.30;99.90
51825;DHT22;37879;52.986;6.282;2023-04-29T06:46:08;9.30;99.90
51825;DHT22;37879;52.986;6.282;2023-04-29T06:48:34;9.30;99.90
51825;DHT22;37879;52.986;6.282;2023-04-29T06:50:59;10.10;99.90
51825;DHT22;37879;52.986;6.282;2023-04-29T06:53:25;10.00;99.90
51825;DHT22;37879;52.986;6.282;2023-04-29T06:55:51;9.80;99.90
51825;DHT22;37879;52.986;6.282;2023-04-29T06:58:17;9.50;99.90
51825;DHT22;37879;52.986;6.282;2023-04-29T07:00:44;10.50;99.90
51825;DHT22;37879;52.986;6.282;2023-04-29T07:03:11;9.90;99.90
51825;DHT22;37879;52.986;6.282;2023-04-29T07:05:36;10.50;99.90
51825;DHT22;37879;52.986;6.282;2023-04-29T07:08:05;10.70;99.90
51825;DHT22;37879;52.986;6.282;2023-04-29T07:10:31;9.80;99.90
51825;DHT22;37879;52.986;6.282;2023-04-29T07:12:57;10.10;99.90
51825;DHT22;37879;52.986;6.282;2023-04-29T07:15:24;9.90;99.90
51825;DHT22;37879;52.986;6.282;2023-04-29T07:17:49;11.10;99.90
51825;DHT22;37879;52.986;6.282;2023-04-29T07:20:15;10.20;99.90
51825;DHT22;37879;52.986;6.282;2023-04-29T07:22:41;10.10;99.90
51825;DHT22;37879;52.986;6.282;2023-04-29T07:25:07;10.20;99.90
51825;DHT22;37879;52.986;6.282;2023-04-29T07:27:33;10.30;99.90
51825;DHT22;37879;52.986;6.282;2023-04-29T07:30:00;10.50;99.90
51825;DHT22;37879;52.986;6.282;2023-04-29T07:32:26;10.40;99.90
51825;DHT22;37879;52.986;6.282;2023-04-29T07:34:52;10.40;99.90
51825;DHT22;37879;52.986;6.282;2023-04-29T07:37:18;10.50;99.90
51825;DHT22;37879;52.986;6.282;2023-04-29T07:39:43;10.50;99.90
51825;DHT22;37879;52.986;6.282;2023-04-29T07:42:09;10.90;99.90
51825;DHT22;37879;52.986;6.282;2023-04-29T07:44:35;10.60;99.90
51825;DHT22;37879;52.986;6.282;2023-04-29T07:47:01;10.70;99.90
51825;DHT22;37879;52.986;6.282;2023-04-29T07:49:26;10.70;99.90
51825;DHT22;37879;52.986;6.282;2023-04-29T07:51:52;10.80;99.90
51825;DHT22;37879;52.986;6.282;2023-04-29T07:54:18;10.90;99.90
51825;DHT22;37879;52.986;6.282;2023-04-29T07:56:47;11.30;99.90
51825;DHT22;37879;52.986;6.282;2023-04-29T07:59:13;11.10;99.90
51825;DHT22;37879;52.986;6.282;2023-04-29T08:01:40;11.10;99.90
51825;DHT22;37879;52.986;6.282;2023-04-29T08:04:05;11.10;99.90
51825;DHT22;37879;52.986;6.282;2023-04-29T08:06:32;11.10;99.90
51825;DHT22;37879;52.986;6.282;2023-04-29T08:08:58;11.10;99.90
51825;DHT22;37879;52.986;6.282;2023-04-29T08:11:24;11.10;99.90
51825;DHT22;37879;52.986;6.282;2023-04-29T08:13:51;11.20;99.90
51825;DHT22;37879;52.986;6.282;2023-04-29T08:16:17;11.60;99.90
51825;DHT22;37879;52.986;6.282;2023-04-29T08:18:42;11.20;99.90
51825;DHT22;37879;52.986;6.282;2023-04-29T08:21:08;11.30;99.90
51825;DHT22;37879;52.986;6.282;2023-04-29T08:23:39;11.30;99.90
51825;DHT22;37879;52.986;6.282;2023-04-29T08:26:05;11.30;99.90
51825;DHT22;37879;52.986;6.282;2023-04-29T08:28:31;11.40;99.90
51825;DHT22;37879;52.986;6.282;2023-04-29T08:30:56;11.70;99.90
51825;DHT22;37879;52.986;6.282;2023-04-29T08:33:22;11.60;99.90
51825;DHT22;37879;52.986;6.282;2023-04-29T08:35:48;11.70;99.90
51825;DHT22;37879;52.986;6.282;2023-04-29T08:38:22;11.80;99.90
51825;DHT22;37879;52.986;6.282;2023-04-29T08:40:47;11.70;99.90
51825;DHT22;37879;52.986;6.282;2023-04-29T08:43:13;11.80;99.90
51825;DHT22;37879;52.986;6.282;2023-04-29T08:45:41;11.90;99.90
51825;DHT22;37879;52.986;6.282;2023-04-29T08:48:07;12.00;99.90
51825;DHT22;37879;52.986;6.282;2023-04-29T08:50:39;12.00;99.90
51825;DHT22;37879;52.986;6.282;2023-04-29T08:53:11;12.00;99.90
51825;DHT22;37879;52.986;6.282;2023-04-29T08:55:46;12.00;99.90
51825;DHT22;37879;52.986;6.282;2023-04-29T08:58:13;12.00;99.90
51825;DHT22;37879;52.986;6.282;2023-04-29T09:00:42;11.80;99.90
51825;DHT22;37879;52.986;6.282;2023-04-29T09:03:30;11.80;99.90
51825;DHT22;37879;52.986;6.282;2023-04-29T09:05:59;11.80;99.90
51825;DHT22;37879;52.986;6.282;2023-04-29T09:08:26;12.00;99.90
51825;DHT22;37879;52.986;6.282;2023-04-29T09:10:53;12.00;99.90
51825;DHT22;37879;52.986;6.282;2023-04-29T09:13:27;12.10;99.90
51825;DHT22;37879;52.986;6.282;2023-04-29T09:15:53;12.30;99.90
51825;DHT22;37879;52.986;6.282;2023-04-29T09:21:18;12.20;99.90
51825;DHT22;37879;52.986;6.282;2023-04-29T09:23:46;12.30;99.90
51825;DHT22;37879;52.986;6.282;2023-04-29T09:26:12;12.20;99.90
51825;DHT22;37879;52.986;6.282;2023-04-29T09:28:38;12.20;99.90
51825;DHT22;37879;52.986;6.282;2023-04-29T09:31:12;12.20;99.90
51825;DHT22;37879;52.986;6.282;2023-04-29T09:33:52;12.30;99.90
51825;DHT22;37879;52.986;6.282;2023-04-29T09:39:04;12.30;99.90
51825;DHT22;37879;52.986;6.282;2023-04-29T09:41:30;12.40;99.90
51825;DHT22;37879;52.986;6.282;2023-04-29T09:44:04;13.00;99.90
51825;DHT22;37879;52.986;6.282;2023-04-29T09:46:31;12.50;99.90
51825;DHT22;37879;52.986;6.282;2023-04-29T09:48:57;12.60;99.90
51825;DHT22;37879;52.986;6.282;2023-04-29T09:51:23;12.60;99.90
51825;DHT22;37879;52.986;6.282;2023-04-29T09:53:49;12.60;99.90
51825;DHT22;37879;52.986;6.282;2023-04-29T09:56:15;12.60;99.90
51825;DHT22;37879;52.986;6.282;2023-04-29T09:58:40;12.70;99.90
51825;DHT22;37879;52.986;6.282;2023-04-29T10:01:06;13.00;99.90
51825;DHT22;37879;52.986;6.282;2023-04-29T10:03:36;12.70;99.90
51825;DHT22;37879;52.986;6.282;2023-04-29T10:06:06;12.70;99.90
51825;DHT22;37879;52.986;6.282;2023-04-29T10:08:33;12.80;99.90
51825;DHT22;37879;52.986;6.282;2023-04-29T10:11:01;12.80;99.90
51825;DHT22;37879;52.986;6.282;2023-04-29T10:13:28;12.80;99.90
51825;DHT22;37879;52.986;6.282;2023-04-29T10:18:55;12.90;99.90
51825;DHT22;37879;52.986;6.282;2023-04-29T10:21:27;13.00;99.90
51825;DHT22;37879;52.986;6.282;2023-04-29T10:23:57;13.00;99.90
51825;DHT22;37879;52.986;6.282;2023-04-29T10:26:28;13.00;99.90
51825;DHT22;37879;52.986;6.282;2023-04-29T10:28:55;13.10;99.90
51825;DHT22;37879;52.986;6.282;2023-04-29T10:31:24;13.00;99.90
51825;DHT22;37879;52.986;6.282;2023-04-29T10:33:50;13.00;99.90
51825;DHT22;37879;52.986;6.282;2023-04-29T10:36:19;13.00;99.90
51825;DHT22;37879;52.986;6.282;2023-04-29T10:38:49;13.00;99.90
51825;DHT22;37879;52.986;6.282;2023-04-29T10:41:29;13.00;99.90
51825;DHT22;37879;52.986;6.282;2023-04-29T10:43:58;12.90;99.90
51825;DHT22;37879;52.986;6.282;2023-04-29T10:46:25;13.60;99.90
51825;DHT22;37879;52.986;6.282;2023-04-29T10:48:56;13.00;99.90
51825;DHT22;37879;52.986;6.282;2023-04-29T10:54:03;13.10;99.90
51825;DHT22;37879;52.986;6.282;2023-04-29T10:56:51;13.80;99.90
51825;DHT22;37879;52.986;6.282;2023-04-29T10:59:43;13.30;99.90
51825;DHT22;37879;52.986;6.282;2023-04-29T11:02:05;13.00;99.90
51825;DHT22;37879;52.986;6.282;2023-04-29T11:04:30;13.00;99.90
51825;DHT22;37879;52.986;6.282;2023-04-29T11:06:57;13.10;99.90
51825;DHT22;37879;52.986;6.282;2023-04-29T11:17:22;13.40;99.90
51825;DHT22;37879;52.986;6.282;2023-04-29T11:19:51;13.50;99.90
51825;DHT22;37879;52.986;6.282;2023-04-29T11:24:56;13.60;99.90
51825;DHT22;37879;52.986;6.282;2023-04-29T11:27:24;13.60;99.90
51825;DHT22;37879;52.986;6.282;2023-04-29T11:29:55;13.80;99.90
51825;DHT22;37879;52.986;6.282;2023-04-29T11:32:24;14.10;99.90
51825;DHT22;37879;52.986;6.282;2023-04-29T11:34:51;13.90;99.90
51825;DHT22;37879;52.986;6.282;2023-04-29T11:37:25;13.90;99.90
51825;DHT22;37879;52.986;6.282;2023-04-29T11:40:01;14.00;99.90
51825;DHT22;37879;52.986;6.282;2023-04-29T11:42:27;14.00;99.90
51825;DHT22;37879;52.986;6.282;2023-04-29T11:44:56;14.00;99.90
51825;DHT22;37879;52.986;6.282;2023-04-29T11:47:28;14.00;99.90
51825;DHT22;37879;52.986;6.282;2023-04-29T11:50:05;14.10;99.90
51825;DHT22;37879;52.986;6.282;2023-04-29T11:52:32;14.20;99.90
51825;DHT22;37879;52.986;6.282;2023-04-29T11:55:00;14.20;99.90
51825;DHT22;37879;52.986;6.282;2023-04-29T11:57:26;14.20;99.90
51825;DHT22;37879;52.986;6.282;2023-04-29T11:59:52;14.30;99.90
51825;DHT22;37879;52.986;6.282;2023-04-29T12:02:21;14.40;99.90
51825;DHT22;37879;52.986;6.282;2023-04-29T12:04:47;14.30;99.90
51825;DHT22;37879;52.986;6.282;2023-04-29T12:07:14;14.30;99.90
51825;DHT22;37879;52.986;6.282;2023-04-29T12:09:42;14.20;99.90
51825;DHT22;37879;52.986;6.282;2023-04-29T12:12:08;14.20;99.90
51825;DHT22;37879;52.986;6.282;2023-04-29T12:14:34;14.10;99.90
51825;DHT22;37879;52.986;6.282;2023-04-29T12:17:00;14.10;99.90
51825;DHT22;37879;52.986;6.282;2023-04-29T12:19:26;14.40;99.90
51825;DHT22;37879;52.986;6.282;2023-04-29T12:21:52;14.00;99.90
51825;DHT22;37879;52.986;6.282;2023-04-29T12:24:19;13.90;99.90
51825;DHT22;37879;52.986;6.282;2023-04-29T12:26:45;13.80;99.90
51825;DHT22;37879;52.986;6.282;2023-04-29T12:29:12;13.70;99.90
51825;DHT22;37879;52.986;6.282;2023-04-29T12:31:38;13.70;99.90
51825;DHT22;37879;52.986;6.282;2023-04-29T12:34:04;13.70;99.90
51825;DHT22;37879;52.986;6.282;2023-04-29T12:36:30;13.90;99.90
51825;DHT22;37879;52.986;6.282;2023-04-29T12:38:57;13.90;99.90
51825;DHT22;37879;52.986;6.282;2023-04-29T12:41:40;13.80;99.90
51825;DHT22;37879;52.986;6.282;2023-04-29T12:44:07;14.20;99.90
51825;DHT22;37879;52.986;6.282;2023-04-29T12:46:39;14.10;99.90
51825;DHT22;37879;52.986;6.282;2023-04-29T12:49:06;14.10;99.90
51825;DHT22;37879;52.986;6.282;2023-04-29T12:51:35;14.20;99.90
51825;DHT22;37879;52.986;6.282;2023-04-29T12:54:02;14.20;99.90
51825;DHT22;37879;52.986;6.282;2023-04-29T12:56:29;14.10;99.90
51825;DHT22;37879;52.986;6.282;2023-04-29T12:59:03;14.10;99.90
51825;DHT22;37879;52.986;6.282;2023-04-29T13:01:28;14.30;99.90
51825;DHT22;37879;52.986;6.282;2023-04-29T13:03:54;14.20;99.90
51825;DHT22;37879;52.986;6.282;2023-04-29T13:06:20;14.10;99.90
51825;DHT22;37879;52.986;6.282;2023-04-29T13:08:45;14.30;99.90
51825;DHT22;37879;52.986;6.282;2023-04-29T13:11:11;14.30;99.90
51825;DHT22;37879;52.986;6.282;2023-04-29T13:13:38;14.30;99.90
51825;DHT22;37879;52.986;6.282;2023-04-29T13:16:04;14.30;99.90
51825;DHT22;37879;52.986;6.282;2023-04-29T13:18:30;14.30;99.90
51825;DHT22;37879;52.986;6.282;2023-04-29T13:20:56;14.40;99.90
51825;DHT22;37879;52.986;6.282;2023-04-29T13:23:22;14.40;99.90
51825;DHT22;37879;52.986;6.282;2023-04-29T13:25:49;14.50;99.90
51825;DHT22;37879;52.986;6.282;2023-04-29T13:28:15;14.60;99.90
51825;DHT22;37879;52.986;6.282;2023-04-29T13:30:41;14.70;99.90
51825;DHT22;37879;52.986;6.282;2023-04-29T13:33:07;14.60;99.90
51825;DHT22;37879;52.986;6.282;2023-04-29T13:35:32;14.60;99.90
51825;DHT22;37879;52.986;6.282;2023-04-29T13:38:01;14.80;99.90
51825;DHT22;37879;52.986;6.282;2023-04-29T13:40:26;14.80;99.90
51825;DHT22;37879;52.986;6.282;2023-04-29T13:42:52;14.90;99.90
51825;DHT22;37879;52.986;6.282;2023-04-29T13:45:18;14.80;99.90
51825;DHT22;37879;52.986;6.282;2023-04-29T13:47:44;14.90;99.90
51825;DHT22;37879;52.986;6.282;2023-04-29T13:50:10;15.00;99.90
51825;DHT22;37879;52.986;6.282;2023-04-29T13:52:35;15.00;99.90
51825;DHT22;37879;52.986;6.282;2023-04-29T13:55:01;14.80;99.90
51825;DHT22;37879;52.986;6.282;2023-04-29T13:57:27;14.80;99.90
51825;DHT22;37879;52.986;6.282;2023-04-29T13:59:52;15.00;99.90
51825;DHT22;37879;52.986;6.282;2023-04-29T14:02:20;15.10;99.90
51825;DHT22;37879;52.986;6.282;2023-04-29T14:04:46;15.10;99.90
51825;DHT22;37879;52.986;6.282;2023-04-29T14:07:13;15.10;99.90
51825;DHT22;37879;52.986;6.282;2023-04-29T14:09:38;14.90;99.90
51825;DHT22;37879;52.986;6.282;2023-04-29T14:12:05;14.90;99.90
51825;DHT22;37879;52.986;6.282;2023-04-29T14:14:30;14.80;99.90
51825;DHT22;37879;52.986;6.282;2023-04-29T14:16:56;14.90;99.90
51825;DHT22;37879;52.986;6.282;2023-04-29T14:19:22;14.90;99.90
51825;DHT22;37879;52.986;6.282;2023-04-29T14:21:48;14.80;99.90
51825;DHT22;37879;52.986;6.282;2023-04-29T14:24:14;14.80;99.90
51825;DHT22;37879;52.986;6.282;2023-04-29T14:26:39;14.80;99.90
51825;DHT22;37879;52.986;6.282;2023-04-29T14:29:06;14.70;99.90
51825;DHT22;37879;52.986;6.282;2023-04-29T14:31:35;14.60;99.90
51825;DHT22;37879;52.986;6.282;2023-04-29T14:34:04;14.50;99.90
51825;DHT22;37879;52.986;6.282;2023-04-29T14:36:30;14.40;99.90
51825;DHT22;37879;52.986;6.282;2023-04-29T14:38:59;14.30;99.90
51825;DHT22;37879;52.986;6.282;2023-04-29T14:41:25;14.20;99.90
51825;DHT22;37879;52.986;6.282;2023-04-29T14:43:51;14.30;99.90
51825;DHT22;37879;52.986;6.282;2023-04-29T14:46:17;14.30;99.90
51825;DHT22;37879;52.986;6.282;2023-04-29T14:48:43;14.40;99.90
51825;DHT22;37879;52.986;6.282;2023-04-29T14:51:09;14.40;99.90
51825;DHT22;37879;52.986;6.282;2023-04-29T14:53:35;14.40;99.90
51825;DHT22;37879;52.986;6.282;2023-04-29T14:56:00;14.50;99.90
51825;DHT22;37879;52.986;6.282;2023-04-29T14:58:26;14.40;99.90
51825;DHT22;37879;52.986;6.282;2023-04-29T15:00:52;14.70;99.90
51825;DHT22;37879;52.986;6.282;2023-04-29T15:03:17;14.20;99.90
51825;DHT22;37879;52.986;6.282;2023-04-29T15:05:43;13.90;99.90
51825;DHT22;37879;52.986;6.282;2023-04-29T15:08:10;13.80;99.90
51825;DHT22;37879;52.986;6.282;2023-04-29T15:10:36;13.80;99.90
51825;DHT22;37879;52.986;6.282;2023-04-29T15:13:01;13.70;99.90
51825;DHT22;37879;52.986;6.282;2023-04-29T15:15:27;13.80;99.90
51825;DHT22;37879;52.986;6.282;2023-04-29T15:17:53;13.90;99.90
51825;DHT22;37879;52.986;6.282;2023-04-29T15:20:19;13.90;99.90
51825;DHT22;37879;52.986;6.282;2023-04-29T15:22:45;13.90;99.90
51825;DHT22;37879;52.986;6.282;2023-04-29T15:25:12;14.00;99.90
51825;DHT22;37879;52.986;6.282;2023-04-29T15:27:37;13.60;99.90
51825;DHT22;37879;52.986;6.282;2023-04-29T15:30:04;13.50;99.90
51825;DHT22;37879;52.986;6.282;2023-04-29T15:32:30;13.50;99.90
51825;DHT22;37879;52.986;6.282;2023-04-29T15:35:00;13.40;99.90
51825;DHT22;37879;52.986;6.282;2023-04-29T15:37:26;13.50;99.90
51825;DHT22;37879;52.986;6.282;2023-04-29T15:39:53;13.50;99.90
51825;DHT22;37879;52.986;6.282;2023-04-29T15:42:19;13.30;99.90
51825;DHT22;37879;52.986;6.282;2023-04-29T15:44:45;13.40;99.90
51825;DHT22;37879;52.986;6.282;2023-04-29T15:47:10;13.30;99.90
51825;DHT22;37879;52.986;6.282;2023-04-29T15:49:36;13.30;99.90
51825;DHT22;37879;52.986;6.282;2023-04-29T15:52:02;13.30;99.90
51825;DHT22;37879;52.986;6.282;2023-04-29T15:54:28;13.30;99.90
51825;DHT22;37879;52.986;6.282;2023-04-29T15:56:55;13.70;99.90
51825;DHT22;37879;52.986;6.282;2023-04-29T15:59:20;13.60;99.90
51825;DHT22;37879;52.986;6.282;2023-04-29T16:01:46;13.70;99.90
51825;DHT22;37879;52.986;6.282;2023-04-29T16:04:12;13.10;99.90
51825;DHT22;37879;52.986;6.282;2023-04-29T16:06:37;13.00;99.90
51825;DHT22;37879;52.986;6.282;2023-04-29T16:09:03;13.00;99.90
51825;DHT22;37879;52.986;6.282;2023-04-29T16:11:29;13.00;99.90
51825;DHT22;37879;52.986;6.282;2023-04-29T16:13:55;13.10;99.90
51825;DHT22;37879;52.986;6.282;2023-04-29T16:16:21;13.00;99.90